Time;durP1;ratioP1;P1;durP2;ratioP2;P2;SDS_P1;SDS_P2;PMS_P1;PMS_P2;Temp;Humidity;BMP_temperature;BMP_pressure;BME280_temperature;BME280_humidity;BME280_pressure;Samples;Min_cycle;Max_cycle;Signal;HPM_P1;HPM_P2
2021/07/23 00:01:23;;;;;;;15.93;8.57;;;17.20;99.90;;;;;;5023547;28;20180;-77
2021/07/23 00:03:48;;;;;;;13.90;8.13;;;17.20;99.90;;;;;;5019448;28;20037;-77
2021/07/23 00:06:15;;;;;;;18.58;8.60;;;17.20;99.90;;;;;;5025929;28;20046;-77
2021/07/23 00:08:40;;;;;;;14.93;8.20;;;17.10;99.90;;;;;;5028648;28;20029;-77
2021/07/23 00:11:06;;;;;;;17.02;8.82;;;17.10;99.90;;;;;;5026404;28;20125;-77
2021/07/23 00:13:31;;;;;;;16.45;8.50;;;17.10;99.90;;;;;;5029296;28;20021;-77
2021/07/23 00:15:57;;;;;;;18.88;8.55;;;17.00;99.90;;;;;;5026360;28;20025;-77
2021/07/23 00:18:22;;;;;;;15.20;8.85;;;17.00;99.90;;;;;;5026788;28;20033;-77
2021/07/23 00:20:48;;;;;;;13.68;8.63;;;16.90;99.90;;;;;;5020614;28;20033;-77
2021/07/23 00:23:13;;;;;;;16.13;9.00;;;17.00;99.90;;;;;;5027917;28;20032;-77
2021/07/23 00:25:39;;;;;;;15.27;8.75;;;16.90;99.90;;;;;;5023695;28;20034;-77
2021/07/23 00:28:04;;;;;;;16.15;8.73;;;16.90;99.90;;;;;;5027692;28;20472;-77
2021/07/23 00:30:30;;;;;;;12.07;8.55;;;16.90;99.90;;;;;;5024455;28;20488;-77
2021/07/23 00:32:55;;;;;;;15.10;8.35;;;16.80;99.90;;;;;;5026672;28;20468;-77
2021/07/23 00:35:21;;;;;;;18.73;8.98;;;16.80;99.90;;;;;;5027289;28;20057;-77
2021/07/23 00:37:46;;;;;;;15.43;8.30;;;16.80;99.90;;;;;;5021780;28;20033;-77
2021/07/23 00:40:12;;;;;;;16.08;8.98;;;16.70;99.90;;;;;;5024394;28;20679;-77
2021/07/23 00:42:42;;;;;;;15.07;8.85;;;16.70;99.90;;;;;;5029064;28;20033;-77
2021/07/23 00:45:09;;;;;;;16.25;9.10;;;16.70;99.90;;;;;;5023351;28;20041;-77
2021/07/23 00:47:36;;;;;;;14.23;8.20;;;16.70;99.90;;;;;;5028358;28;20127;-77
2021/07/23 00:50:04;;;;;;;17.67;8.85;;;16.60;99.90;;;;;;5023611;28;20030;-77
2021/07/23 00:52:29;;;;;;;16.98;8.75;;;16.60;99.90;;;;;;5027641;28;20116;-77
2021/07/23 00:54:55;;;;;;;19.10;9.52;;;16.60;99.90;;;;;;5026869;28;20121;-77
2021/07/23 00:57:21;;;;;;;15.35;9.50;;;16.60;99.90;;;;;;5029221;28;20032;-77
2021/07/23 00:59:47;;;;;;;18.00;9.55;;;16.60;99.90;;;;;;5017542;28;20029;-77
2021/07/23 01:02:13;;;;;;;15.85;8.95;;;16.50;99.90;;;;;;5017393;28;20076;-77
2021/07/23 01:04:40;;;;;;;13.73;8.18;;;16.50;99.90;;;;;;5023120;28;20041;-77
2021/07/23 01:07:06;;;;;;;14.45;9.00;;;16.50;99.90;;;;;;5025278;28;20133;-77
2021/07/23 01:09:31;;;;;;;16.00;9.00;;;16.40;99.90;;;;;;5027902;28;20108;-77
2021/07/23 01:11:58;;;;;;;15.40;9.13;;;16.40;99.90;;;;;;5026144;28;20021;-78
2021/07/23 01:14:24;;;;;;;16.73;8.52;;;16.40;99.90;;;;;;5021961;28;20021;-77
2021/07/23 01:16:50;;;;;;;13.18;9.13;;;16.40;99.90;;;;;;5024181;28;20107;-78
2021/07/23 01:19:18;;;;;;;13.75;8.93;;;16.30;99.90;;;;;;5023924;28;20481;-77
2021/07/23 01:21:48;;;;;;;15.35;8.75;;;16.30;99.90;;;;;;5026767;28;20025;-77
2021/07/23 01:24:13;;;;;;;13.77;8.32;;;16.30;99.90;;;;;;5025701;28;20021;-77
2021/07/23 01:26:40;;;;;;;17.63;9.18;;;16.40;99.90;;;;;;5022496;28;20035;-77
2021/07/23 01:29:06;;;;;;;23.73;9.73;;;16.40;99.90;;;;;;5017463;28;20034;-77
2021/07/23 01:31:31;;;;;;;12.77;8.32;;;16.40;99.90;;;;;;5025598;28;20416;-77
2021/07/23 01:33:57;;;;;;;18.83;8.98;;;16.40;99.90;;;;;;5020145;28;20117;-77
2021/07/23 01:36:23;;;;;;;14.63;8.98;;;16.40;99.90;;;;;;5023938;28;20537;-77
2021/07/23 01:38:51;;;;;;;16.50;9.15;;;16.50;99.90;;;;;;5025592;28;20564;-77
2021/07/23 01:41:18;;;;;;;12.50;7.68;;;16.40;99.90;;;;;;5025888;28;20029;-77
2021/07/23 01:43:43;;;;;;;14.45;8.60;;;16.40;99.90;;;;;;5019911;28;20055;-77
2021/07/23 01:46:08;;;;;;;20.02;9.32;;;16.50;99.90;;;;;;5019342;28;20483;-77
2021/07/23 01:48:37;;;;;;;15.57;8.98;;;16.40;99.90;;;;;;5020107;28;20029;-77
2021/07/23 01:51:03;;;;;;;15.38;8.27;;;16.40;99.90;;;;;;5016509;28;20036;-77
2021/07/23 01:53:28;;;;;;;17.23;9.02;;;16.40;99.90;;;;;;5024507;28;20026;-77
2021/07/23 01:55:54;;;;;;;14.35;9.10;;;16.40;99.90;;;;;;5025344;28;20033;-77
2021/07/23 01:58:19;;;;;;;14.05;8.75;;;16.40;99.90;;;;;;5027582;28;20029;-77
2021/07/23 02:00:45;;;;;;;14.07;8.57;;;16.40;99.90;;;;;;5024285;28;20075;-77
2021/07/23 02:03:10;;;;;;;17.50;9.23;;;16.40;99.90;;;;;;5025303;28;20495;-77
2021/07/23 02:05:35;;;;;;;16.75;8.25;;;16.40;99.90;;;;;;5026308;28;20563;-77
2021/07/23 02:08:01;;;;;;;14.48;8.40;;;16.30;99.90;;;;;;5025334;28;20036;-77
2021/07/23 02:10:27;;;;;;;12.90;8.23;;;16.30;99.90;;;;;;5025925;28;20026;-78
2021/07/23 02:12:52;;;;;;;18.85;8.23;;;16.30;99.90;;;;;;5025615;28;20018;-76
2021/07/23 02:15:18;;;;;;;14.60;8.30;;;16.30;99.90;;;;;;5019459;28;20021;-76
2021/07/23 02:17:43;;;;;;;18.45;9.20;;;16.30;99.90;;;;;;5026469;28;20075;-76
2021/07/23 02:20:09;;;;;;;16.38;8.65;;;16.30;99.90;;;;;;5027189;28;20167;-76
2021/07/23 02:22:38;;;;;;;12.85;7.90;;;16.30;99.90;;;;;;5025175;28;20025;-76
2021/07/23 02:25:05;;;;;;;14.30;8.30;;;16.30;99.90;;;;;;5025989;28;20052;-77
2021/07/23 02:27:34;;;;;;;13.93;8.57;;;16.20;99.90;;;;;;5027018;28;20029;-77
2021/07/23 02:30:00;;;;;;;14.35;8.75;;;16.20;99.90;;;;;;5026290;28;20029;-77
2021/07/23 02:32:25;;;;;;;13.40;8.68;;;16.20;99.90;;;;;;5025474;28;20029;-77
2021/07/23 02:34:51;;;;;;;15.27;8.18;;;16.20;99.90;;;;;;5023905;28;20076;-77
2021/07/23 02:37:16;;;;;;;12.98;8.18;;;16.20;99.90;;;;;;5025076;28;20021;-77
2021/07/23 02:39:41;;;;;;;13.80;8.43;;;16.20;99.90;;;;;;5024272;28;20038;-77
2021/07/23 02:42:07;;;;;;;13.70;8.00;;;16.10;99.90;;;;;;5024557;28;20021;-77
2021/07/23 02:44:32;;;;;;;12.27;7.95;;;16.10;99.90;;;;;;5019547;28;20105;-77
2021/07/23 02:46:58;;;;;;;16.02;9.30;;;16.10;99.90;;;;;;5025105;28;20029;-77
2021/07/23 02:49:23;;;;;;;13.95;8.50;;;16.10;99.90;;;;;;5027678;28;20061;-77
2021/07/23 02:51:49;;;;;;;16.15;8.55;;;16.00;99.90;;;;;;5020595;28;20029;-77
2021/07/23 02:54:14;;;;;;;15.50;8.57;;;16.00;99.90;;;;;;5025558;28;20029;-77
2021/07/23 02:56:40;;;;;;;14.05;8.68;;;16.00;99.90;;;;;;5020847;28;20030;-77
2021/07/23 02:59:05;;;;;;;12.48;7.85;;;16.00;99.90;;;;;;5020953;28;20152;-78
2021/07/23 03:01:31;;;;;;;13.02;8.20;;;16.00;99.90;;;;;;5026954;28;20029;-77
2021/07/23 03:03:56;;;;;;;14.07;8.32;;;16.00;99.90;;;;;;5023730;28;20045;-78
2021/07/23 03:06:22;;;;;;;14.02;8.25;;;16.00;99.90;;;;;;5020608;28;20046;-78
2021/07/23 03:08:48;;;;;;;14.77;8.57;;;15.90;99.90;;;;;;5018260;28;20040;-77
2021/07/23 03:11:15;;;;;;;14.70;8.27;;;15.90;99.90;;;;;;5021892;28;20416;-77
2021/07/23 03:13:40;;;;;;;13.23;8.30;;;15.90;99.90;;;;;;5026753;28;20030;-78
2021/07/23 03:16:11;;;;;;;15.32;8.73;;;16.00;99.90;;;;;;5018728;28;20080;-77
2021/07/23 03:18:37;;;;;;;14.32;8.38;;;16.00;99.90;;;;;;5026473;28;20108;-77
2021/07/23 03:21:02;;;;;;;15.40;9.10;;;16.00;99.90;;;;;;5023071;28;20124;-77
2021/07/23 03:23:28;;;;;;;14.13;7.82;;;16.00;99.90;;;;;;5023456;28;20033;-78
2021/07/23 03:25:53;;;;;;;16.63;8.55;;;16.00;99.90;;;;;;5026070;28;20072;-77
2021/07/23 03:28:18;;;;;;;20.20;8.88;;;16.00;99.90;;;;;;5028288;28;20074;-77
2021/07/23 03:30:44;;;;;;;14.82;7.97;;;16.00;99.90;;;;;;5024898;28;20018;-77
2021/07/23 03:33:09;;;;;;;14.52;9.23;;;16.10;99.90;;;;;;5019758;28;20074;-78
2021/07/23 03:35:35;;;;;;;13.20;8.32;;;16.00;99.90;;;;;;5031500;28;20105;-73
2021/07/23 03:38:01;;;;;;;13.77;8.43;;;16.10;99.90;;;;;;5018785;28;20023;-72
2021/07/23 03:40:26;;;;;;;13.77;8.38;;;16.10;99.90;;;;;;5029595;28;20369;-73
2021/07/23 03:42:52;;;;;;;14.85;8.55;;;16.10;99.90;;;;;;5021169;28;20025;-73
2021/07/23 03:45:17;;;;;;;14.15;8.45;;;16.10;99.90;;;;;;5025527;28;20162;-74
2021/07/23 03:47:43;;;;;;;14.40;8.35;;;16.10;99.90;;;;;;5023511;28;20392;-72
2021/07/23 03:50:09;;;;;;;16.08;8.40;;;16.10;99.90;;;;;;5019694;28;20071;-74
2021/07/23 03:52:34;;;;;;;17.88;9.35;;;16.10;99.90;;;;;;5018518;28;20036;-73
2021/07/23 03:55:00;;;;;;;16.85;9.00;;;16.20;99.90;;;;;;5011768;28;20696;-73
2021/07/23 03:57:25;;;;;;;17.58;9.23;;;16.20;99.90;;;;;;5023439;28;20029;-74
2021/07/23 03:59:50;;;;;;;14.60;9.00;;;16.20;99.90;;;;;;5029562;28;20036;-74
2021/07/23 04:02:16;;;;;;;15.07;8.88;;;16.20;99.90;;;;;;5028950;28;20060;-74
2021/07/23 04:04:41;;;;;;;18.17;9.73;;;16.20;99.90;;;;;;5025218;28;20116;-74
2021/07/23 04:07:07;;;;;;;14.68;9.50;;;16.20;99.90;;;;;;5022272;28;20040;-74
2021/07/23 04:09:33;;;;;;;17.85;9.90;;;16.20;99.90;;;;;;5028657;28;20050;-75
2021/07/23 04:12:00;;;;;;;20.60;8.77;;;16.30;99.90;;;;;;5018002;28;20034;-74
2021/07/23 04:14:25;;;;;;;16.50;10.68;;;16.30;99.90;;;;;;5028667;28;20057;-74
2021/07/23 04:16:51;;;;;;;19.27;10.52;;;16.40;99.90;;;;;;5026285;28;20052;-75
2021/07/23 04:19:17;;;;;;;17.75;10.65;;;16.40;99.90;;;;;;5029212;28;20025;-75
2021/07/23 04:21:43;;;;;;;15.55;10.38;;;16.50;99.90;;;;;;5029979;28;20065;-75
2021/07/23 04:24:09;;;;;;;19.92;10.35;;;16.50;99.90;;;;;;5029466;28;20025;-75
2021/07/23 04:26:34;;;;;;;18.17;9.30;;;16.50;99.90;;;;;;5027744;28;20021;-75
2021/07/23 04:29:00;;;;;;;17.60;9.38;;;16.60;99.90;;;;;;5027339;28;20063;-74
2021/07/23 04:31:27;;;;;;;19.25;10.50;;;16.60;99.90;;;;;;5022455;28;20053;-74
2021/07/23 04:33:55;;;;;;;14.35;9.55;;;16.70;99.90;;;;;;5024180;28;20022;-75
2021/07/23 04:36:21;;;;;;;19.33;9.57;;;16.80;99.90;;;;;;5026125;28;20033;-75
2021/07/23 04:38:46;;;;;;;18.33;10.55;;;16.80;99.90;;;;;;5014054;28;20036;-75
2021/07/23 04:41:12;;;;;;;19.98;10.25;;;16.80;99.90;;;;;;5025658;28;20045;-75
2021/07/23 04:43:41;;;;;;;20.23;11.02;;;16.80;99.90;;;;;;5024560;28;20105;-74
2021/07/23 04:46:07;;;;;;;15.48;9.95;;;16.80;99.90;;;;;;5023791;28;20452;-72
2021/07/23 04:48:33;;;;;;;16.30;9.60;;;16.90;99.90;;;;;;5027874;28;20108;-72
2021/07/23 04:51:04;;;;;;;20.38;10.05;;;16.90;99.90;;;;;;5027717;28;20121;-73
2021/07/23 04:53:30;;;;;;;16.90;10.00;;;16.90;99.90;;;;;;5022273;28;20116;-72
2021/07/23 04:56:00;;;;;;;18.95;10.35;;;17.00;99.90;;;;;;5017704;28;20112;-72
2021/07/23 04:58:25;;;;;;;22.30;10.52;;;17.00;99.90;;;;;;5022656;28;20061;-72
2021/07/23 05:00:53;;;;;;;20.20;10.50;;;17.00;99.90;;;;;;5022040;28;20061;-72
2021/07/23 05:03:19;;;;;;;22.77;10.15;;;17.10;99.90;;;;;;5022297;28;20053;-72
2021/07/23 05:05:46;;;;;;;15.38;9.63;;;17.20;99.90;;;;;;5028285;28;20523;-72
2021/07/23 05:08:18;;;;;;;21.42;10.43;;;17.30;99.90;;;;;;5016011;28;20083;-72
2021/07/23 05:10:44;;;;;;;17.77;10.25;;;17.40;99.90;;;;;;5022783;28;20042;-72
2021/07/23 05:13:10;;;;;;;18.70;10.50;;;17.50;99.90;;;;;;5021166;28;20376;-72
2021/07/23 05:15:39;;;;;;;18.70;10.57;;;17.50;99.90;;;;;;5020656;28;20496;-72
2021/07/23 05:18:06;;;;;;;17.80;10.30;;;17.50;99.90;;;;;;5023986;28;20034;-72
2021/07/23 05:20:32;;;;;;;20.50;10.27;;;17.50;99.90;;;;;;5028374;28;20590;-75
2021/07/23 05:22:57;;;;;;;17.90;10.52;;;17.50;99.90;;;;;;5024859;28;20029;-75
2021/07/23 05:25:23;;;;;;;18.98;11.25;;;17.50;99.90;;;;;;5022112;28;20025;-74
2021/07/23 05:27:48;;;;;;;22.38;10.90;;;17.50;99.90;;;;;;5024292;28;20025;-74
2021/07/23 05:30:15;;;;;;;20.15;10.65;;;17.50;99.90;;;;;;5025335;28;20025;-75
2021/07/23 05:32:40;;;;;;;18.92;11.23;;;17.50;99.90;;;;;;5023244;28;20026;-74
2021/07/23 05:35:07;;;;;;;16.27;9.70;;;17.50;99.90;;;;;;5025621;28;20439;-75
2021/07/23 05:37:33;;;;;;;18.02;10.23;;;17.50;99.90;;;;;;5028277;28;20033;-74
2021/07/23 05:39:58;;;;;;;20.00;11.13;;;17.60;99.90;;;;;;5021031;28;20075;-74
2021/07/23 05:42:24;;;;;;;20.52;11.02;;;17.50;99.90;;;;;;5025656;28;20397;-74
2021/07/23 05:44:49;;;;;;;16.75;10.60;;;17.50;99.90;;;;;;5027606;28;20392;-74
2021/07/23 05:47:14;;;;;;;18.80;11.18;;;17.40;99.90;;;;;;5028991;28;20025;-74
2021/07/23 05:49:40;;;;;;;18.90;10.93;;;17.40;99.90;;;;;;5022673;28;20434;-74
2021/07/23 05:52:06;;;;;;;18.65;10.93;;;17.40;99.90;;;;;;5022918;28;20045;-74
2021/07/23 05:54:32;;;;;;;17.67;11.32;;;17.40;99.90;;;;;;5024737;28;20512;-74
2021/07/23 05:56:57;;;;;;;18.33;10.85;;;17.40;99.90;;;;;;5024028;28;20029;-74
2021/07/23 05:59:23;;;;;;;19.00;11.45;;;17.40;99.90;;;;;;5017021;28;20380;-74
2021/07/23 06:01:48;;;;;;;19.95;11.65;;;17.50;99.90;;;;;;5028191;28;20033;-73
2021/07/23 06:04:14;;;;;;;21.52;11.85;;;17.50;99.90;;;;;;5018568;28;20053;-73
2021/07/23 06:06:39;;;;;;;21.33;11.80;;;17.50;99.90;;;;;;5025190;28;20116;-73
2021/07/23 06:09:05;;;;;;;22.60;12.93;;;17.60;99.90;;;;;;5017165;28;20032;-73
2021/07/23 06:11:30;;;;;;;24.88;13.10;;;17.60;99.90;;;;;;5019378;28;20022;-73
2021/07/23 06:13:56;;;;;;;26.58;12.38;;;17.70;99.90;;;;;;5011650;28;20599;-73
2021/07/23 06:16:21;;;;;;;21.58;13.30;;;17.70;99.90;;;;;;5017044;28;20025;-73
2021/07/23 06:18:46;;;;;;;22.80;11.88;;;17.80;99.90;;;;;;5026576;28;20021;-73
2021/07/23 06:21:13;;;;;;;24.27;13.50;;;17.80;99.90;;;;;;5027211;28;20078;-73
2021/07/23 06:23:38;;;;;;;21.63;12.38;;;17.90;99.90;;;;;;5028228;28;20037;-73
2021/07/23 06:26:05;;;;;;;21.55;12.85;;;17.90;99.90;;;;;;5022395;28;20038;-73
2021/07/23 06:28:31;;;;;;;26.58;14.27;;;18.00;99.90;;;;;;5027763;28;20096;-73
2021/07/23 06:31:04;;;;;;;25.17;12.60;;;18.00;99.90;;;;;;5020630;28;20117;-73
2021/07/23 06:33:29;;;;;;;20.15;11.57;;;18.10;99.90;;;;;;5020573;28;20025;-73
2021/07/23 06:35:55;;;;;;;25.90;12.07;;;18.10;99.90;;;;;;5015123;28;20033;-73
2021/07/23 06:38:21;;;;;;;19.50;11.80;;;18.20;99.90;;;;;;5023768;28;20079;-75
2021/07/23 06:40:46;;;;;;;18.95;12.00;;;18.20;99.90;;;;;;5015969;28;20400;-75
2021/07/23 06:43:12;;;;;;;20.38;11.02;;;18.30;99.90;;;;;;5023124;28;20030;-74
2021/07/23 06:45:38;;;;;;;20.80;11.63;;;18.30;99.90;;;;;;5026305;28;20033;-74
2021/07/23 06:48:04;;;;;;;18.50;10.10;;;18.40;99.90;;;;;;5023565;28;20400;-74
2021/07/23 06:50:31;;;;;;;16.83;9.98;;;18.50;99.90;;;;;;5020573;28;20037;-74
2021/07/23 06:52:57;;;;;;;18.60;10.50;;;18.50;99.90;;;;;;5018739;28;20037;-73
2021/07/23 06:55:23;;;;;;;20.15;10.23;;;18.60;99.90;;;;;;5022763;28;20063;-74
2021/07/23 06:57:48;;;;;;;24.63;10.40;;;18.70;99.90;;;;;;5027190;28;20037;-75
2021/07/23 07:00:14;;;;;;;17.25;10.02;;;18.80;99.90;;;;;;5024454;28;20032;-74
2021/07/23 07:02:39;;;;;;;14.57;8.63;;;18.80;99.90;;;;;;5028975;28;20484;-74
2021/07/23 07:05:05;;;;;;;15.63;9.35;;;18.80;99.90;;;;;;5020752;28;20036;-73
2021/07/23 07:07:31;;;;;;;17.70;8.27;;;18.90;99.90;;;;;;5033835;28;20114;-74
2021/07/23 07:09:56;;;;;;;14.98;8.38;;;19.00;99.90;;;;;;5028410;28;20021;-74
2021/07/23 07:12:22;;;;;;;11.65;7.22;;;19.00;99.90;;;;;;5022050;28;20029;-74
2021/07/23 07:14:47;;;;;;;14.68;8.15;;;19.10;99.90;;;;;;5030924;28;20380;-75
2021/07/23 07:17:13;;;;;;;14.48;6.90;;;19.20;99.90;;;;;;5023975;28;20083;-74
2021/07/23 07:19:38;;;;;;;9.27;6.05;;;19.30;99.90;;;;;;5020584;28;20037;-73
2021/07/23 07:22:05;;;;;;;14.88;7.75;;;19.40;99.90;;;;;;5028259;28;20140;-74
2021/07/23 07:24:30;;;;;;;12.10;7.00;;;19.50;99.90;;;;;;5029815;28;20480;-74
2021/07/23 07:26:56;;;;;;;8.57;6.07;;;19.50;99.90;;;;;;5028083;28;20116;-74
2021/07/23 07:29:21;;;;;;;9.45;5.45;;;19.60;99.90;;;;;;5029682;28;20036;-74
2021/07/23 07:31:47;;;;;;;13.23;7.65;;;19.60;99.90;;;;;;5027794;28;20045;-74
2021/07/23 07:34:13;;;;;;;13.23;7.03;;;19.70;99.90;;;;;;5029294;28;20370;-74
2021/07/23 07:36:38;;;;;;;11.48;6.78;;;19.80;99.90;;;;;;5028008;28;20510;-74
2021/07/23 07:39:04;;;;;;;9.95;6.43;;;19.80;99.90;;;;;;5028697;28;20492;-75
2021/07/23 07:41:30;;;;;;;10.95;6.13;;;19.90;99.90;;;;;;5026291;28;20116;-84
2021/07/23 07:43:56;;;;;;;10.13;5.30;;;20.00;99.90;;;;;;5029072;28;20182;-72
2021/07/23 07:46:22;;;;;;;8.48;6.05;;;20.00;99.90;;;;;;5026281;28;20026;-77
2021/07/23 07:48:47;;;;;;;13.38;5.90;;;20.10;99.90;;;;;;5029609;28;20117;-79
2021/07/23 07:51:13;;;;;;;8.50;5.50;;;20.20;99.90;;;;;;5026782;28;20594;-77
2021/07/23 07:53:38;;;;;;;7.97;5.30;;;20.30;99.90;;;;;;5026238;28;20033;-77
2021/07/23 07:56:08;;;;;;;10.27;5.72;;;20.50;99.90;;;;;;5026385;28;20058;-77
2021/07/23 07:58:33;;;;;;;8.52;5.63;;;20.60;99.90;;;;;;5029592;28;20121;-77
2021/07/23 08:00:59;;;;;;;8.00;5.70;;;20.80;99.90;;;;;;5025744;28;20037;-77
2021/07/23 08:03:24;;;;;;;8.35;5.75;;;20.80;99.90;;;;;;5028108;28;20370;-76
2021/07/23 08:05:50;;;;;;;8.02;5.28;;;20.70;99.40;;;;;;5024790;28;20033;-77
2021/07/23 08:08:16;;;;;;;7.10;5.00;;;20.80;99.90;;;;;;5029453;28;20057;-77
2021/07/23 08:10:50;;;;;;;9.05;5.20;;;20.90;99.90;;;;;;5029246;28;20052;-78
2021/07/23 08:13:16;;;;;;;8.93;5.75;;;21.00;99.90;;;;;;5026797;28;20026;-77
2021/07/23 08:15:43;;;;;;;7.93;5.13;;;21.10;99.90;;;;;;5029728;28;20028;-77
2021/07/23 08:18:09;;;;;;;9.68;5.40;;;21.10;99.90;;;;;;5029275;28;20079;-77
2021/07/23 08:20:35;;;;;;;7.90;5.63;;;21.30;98.70;;;;;;5028353;28;20025;-77
2021/07/23 08:23:01;;;;;;;8.27;5.13;;;21.30;96.60;;;;;;5027607;28;20469;-76
2021/07/23 08:25:26;;;;;;;11.75;4.90;;;21.30;96.40;;;;;;5022084;28;20026;-76
2021/07/23 08:27:52;;;;;;;8.45;5.20;;;21.40;94.90;;;;;;5026833;28;20083;-76
2021/07/23 08:30:17;;;;;;;8.30;4.97;;;21.40;95.20;;;;;;5027459;28;20062;-76
2021/07/23 08:32:44;;;;;;;6.70;5.18;;;21.40;93.30;;;;;;5027917;28;20029;-77
2021/07/23 08:35:10;;;;;;;6.55;4.65;;;21.30;92.10;;;;;;5026091;28;20053;-76
2021/07/23 08:37:35;;;;;;;7.00;5.07;;;21.20;93.90;;;;;;5028348;28;20555;-76
2021/07/23 08:40:04;;;;;;;11.02;5.10;;;21.20;96.00;;;;;;5026720;28;20434;-76
2021/07/23 08:42:32;;;;;;;8.48;4.97;;;21.20;95.00;;;;;;5027053;28;20033;-76
2021/07/23 08:45:00;;;;;;;10.30;5.00;;;21.30;94.00;;;;;;5027003;28;20041;-76
2021/07/23 08:47:25;;;;;;;7.32;5.43;;;21.30;94.30;;;;;;5023875;28;20120;-76
2021/07/23 08:50:21;;;;;;;8.73;5.20;;;21.50;95.00;;;;;;5027280;28;20113;-76
2021/07/23 08:52:48;;;;;;;7.07;4.90;;;21.60;95.20;;;;;;5026971;28;20519;-76
2021/07/23 08:55:15;;;;;;;8.75;5.13;;;21.60;94.90;;;;;;5026633;28;20049;-76
2021/07/23 08:57:42;;;;;;;7.70;4.80;;;21.60;94.30;;;;;;5027201;28;20059;-76
2021/07/23 09:00:19;;;;;;;6.00;5.00;;;21.60;95.80;;;;;;5016934;28;20037;-76
2021/07/23 09:03:05;;;;;;;8.40;5.10;;;21.50;91.80;;;;;;5026424;28;20057;-75
2021/07/23 09:05:39;;;;;;;8.93;4.55;;;21.40;91.90;;;;;;5030338;28;20029;-74
2021/07/23 09:08:07;;;;;;;81.30;8.38;;;21.50;94.30;;;;;;5020445;28;20041;-75
2021/07/23 09:10:34;;;;;;;77.72;8.73;;;21.60;94.90;;;;;;5021926;28;20079;-74
2021/07/23 09:13:03;;;;;;;10.70;5.65;;;21.80;94.50;;;;;;5019867;28;20041;-75
2021/07/23 09:15:37;;;;;;;77.20;8.95;;;22.00;94.40;;;;;;5021403;28;20033;-75
2021/07/23 09:18:04;;;;;;;86.85;8.60;;;22.30;91.20;;;;;;5015848;28;20029;-75
2021/07/23 09:20:30;;;;;;;164.38;14.30;;;22.40;86.90;;;;;;5015236;28;20029;-75
2021/07/23 09:23:03;;;;;;;88.05;9.77;;;22.50;91.10;;;;;;5018208;28;20396;-75
2021/07/23 09:25:36;;;;;;;97.80;9.48;;;22.50;89.40;;;;;;5025665;28;20065;-75
2021/07/23 09:28:02;;;;;;;10.65;6.07;;;22.40;89.10;;;;;;5023501;28;20065;-75
2021/07/23 09:30:46;;;;;;;70.20;10.27;;;22.20;86.80;;;;;;5018579;28;20048;-75
2021/07/23 09:33:12;;;;;;;16.45;7.20;;;22.10;90.40;;;;;;5020067;28;20094;-74
2021/07/23 09:35:50;;;;;;;9.20;5.82;;;21.90;89.60;;;;;;5018870;28;20489;-75
2021/07/23 09:38:15;;;;;;;10.25;5.55;;;21.80;88.90;;;;;;5017129;28;20037;-75
2021/07/23 09:40:44;;;;;;;8.55;5.55;;;21.80;87.60;;;;;;5017226;28;20401;-75
2021/07/23 09:43:10;;;;;;;35.15;7.82;;;21.80;87.50;;;;;;5010259;28;20018;-75
2021/07/23 09:45:36;;;;;;;22.33;6.38;;;21.90;90.30;;;;;;5011633;28;20511;-75
2021/07/23 09:48:12;;;;;;;25.90;7.13;;;22.00;88.40;;;;;;5021467;28;20163;-75
2021/07/23 09:50:51;;;;;;;9.68;6.22;;;22.00;85.80;;;;;;5021693;28;20426;-75
2021/07/23 09:53:20;;;;;;;8.25;5.90;;;22.10;86.40;;;;;;5020432;28;20127;-75
2021/07/23 09:55:49;;;;;;;27.05;7.20;;;22.20;87.10;;;;;;5017786;28;21547;-75
2021/07/23 09:58:21;;;;;;;9.38;6.45;;;22.20;89.60;;;;;;5010154;28;20112;-75
2021/07/23 10:00:53;;;;;;;13.10;6.25;;;22.30;88.10;;;;;;5011537;28;20030;-75
2021/07/23 10:03:22;;;;;;;9.98;6.47;;;22.50;88.90;;;;;;5015995;28;20022;-75
2021/07/23 10:05:53;;;;;;;11.23;7.22;;;22.70;90.20;;;;;;5020536;28;20025;-75
2021/07/23 10:08:26;;;;;;;15.00;6.93;;;22.80;87.30;;;;;;5015306;28;20393;-75
2021/07/23 10:10:55;;;;;;;15.77;8.48;;;22.90;83.60;;;;;;5020772;28;20104;-75
2021/07/23 10:13:27;;;;;;;9.98;6.70;;;23.00;82.30;;;;;;5017709;28;20030;-74
2021/07/23 10:15:53;;;;;;;12.68;6.75;;;23.10;81.40;;;;;;5012893;28;20641;-74
2021/07/23 10:18:19;;;;;;;13.45;7.43;;;23.20;83.50;;;;;;5017767;28;20033;-74
2021/07/23 10:20:54;;;;;;;13.73;8.43;;;23.20;80.90;;;;;;5019256;28;20025;-73
2021/07/23 10:23:23;;;;;;;11.75;7.30;;;23.20;81.60;;;;;;5019015;28;20022;-74
2021/07/23 10:25:53;;;;;;;12.98;8.00;;;23.20;80.70;;;;;;5017240;28;20496;-74
2021/07/23 10:28:40;;;;;;;12.63;7.73;;;23.30;80.30;;;;;;5018722;28;20029;-75
2021/07/23 10:31:17;;;;;;;13.25;7.07;;;23.40;79.00;;;;;;5018367;28;20030;-75
2021/07/23 10:33:49;;;;;;;11.70;6.88;;;23.50;81.80;;;;;;5018823;28;20152;-75
2021/07/23 10:36:34;;;;;;;10.43;7.20;;;23.50;79.20;;;;;;5025076;28;20125;-75
2021/07/23 10:39:17;;;;;;;12.73;7.53;;;23.40;78.60;;;;;;5018905;28;20041;-74
2021/07/23 10:41:46;;;;;;;11.68;7.65;;;23.40;78.10;;;;;;5018277;28;20041;-75
2021/07/23 10:44:26;;;;;;;10.65;6.93;;;23.60;76.50;;;;;;5022262;28;20037;-74
2021/07/23 10:46:52;;;;;;;9.93;6.68;;;23.70;79.00;;;;;;5021542;28;20613;-75
2021/07/23 10:49:26;;;;;;;11.55;6.43;;;24.00;76.50;;;;;;5012662;28;20034;-75
2021/07/23 10:51:58;;;;;;;13.30;7.20;;;24.00;74.90;;;;;;5019300;28;20099;-74
2021/07/23 10:54:26;;;;;;;13.80;7.25;;;23.90;73.00;;;;;;5018480;28;20033;-75
2021/07/23 10:57:04;;;;;;;26.38;7.82;;;23.90;76.00;;;;;;5015350;28;20109;-75
2021/07/23 10:59:38;;;;;;;23.52;7.30;;;23.80;79.10;;;;;;5020517;28;20112;-75
2021/07/23 11:02:10;;;;;;;9.43;7.03;;;23.70;77.70;;;;;;5012636;28;20041;-75
2021/07/23 11:04:36;;;;;;;10.07;6.82;;;23.70;78.50;;;;;;5025644;28;20064;-73
2021/07/23 11:07:03;;;;;;;10.40;6.38;;;23.70;77.90;;;;;;5023555;28;20037;-73
2021/07/23 11:09:34;;;;;;;32.83;7.28;;;23.70;77.60;;;;;;5020361;28;21009;-73
2021/07/23 11:12:22;;;;;;;10.77;6.40;;;23.90;79.10;;;;;;5023796;28;20033;-73
2021/07/23 11:14:51;;;;;;;17.30;7.43;;;24.00;75.90;;;;;;5023094;28;20029;-73
2021/07/23 11:17:17;;;;;;;11.00;6.57;;;24.20;74.00;;;;;;5024817;28;20034;-74
2021/07/23 11:19:47;;;;;;;12.02;6.00;;;24.60;74.60;;;;;;5024343;28;20117;-74
2021/07/23 11:22:23;;;;;;;10.77;6.33;;;25.00;69.50;;;;;;5019724;28;20447;-73
2021/07/23 11:24:49;;;;;;;10.05;6.43;;;25.20;72.90;;;;;;5020412;28;20057;-73
2021/07/23 11:27:30;;;;;;;13.55;6.75;;;25.50;71.00;;;;;;5025141;28;20038;-74
2021/07/23 11:29:57;;;;;;;10.98;6.85;;;25.60;68.90;;;;;;5019412;28;20064;-73
2021/07/23 11:32:22;;;;;;;9.70;6.47;;;25.70;69.80;;;;;;5019685;28;20455;-73
2021/07/23 11:35:01;;;;;;;11.95;6.30;;;25.70;66.90;;;;;;5021891;28;20026;-73
2021/07/23 11:37:26;;;;;;;9.98;6.47;;;26.00;70.20;;;;;;5024368;28;20040;-73
2021/07/23 11:39:54;;;;;;;9.63;6.18;;;26.40;72.70;;;;;;5021649;28;20025;-74
2021/07/23 11:42:21;;;;;;;10.40;5.88;;;26.90;66.70;;;;;;5018968;28;20026;-74
2021/07/23 11:44:54;;;;;;;12.32;6.32;;;27.30;65.00;;;;;;5022400;28;20076;-74
2021/07/23 11:47:37;;;;;;;10.43;6.18;;;27.40;59.90;;;;;;5017849;28;20047;-73
2021/07/23 11:50:09;;;;;;;8.60;5.97;;;26.90;62.30;;;;;;5016436;28;20409;-73
2021/07/23 11:52:35;;;;;;;8.15;5.80;;;27.00;62.60;;;;;;5019009;28;20539;-74
2021/07/23 11:55:02;;;;;;;9.38;6.22;;;27.50;65.00;;;;;;5016399;28;20101;-74
2021/07/23 11:57:58;;;;;;;8.40;5.85;;;27.90;60.50;;;;;;5021099;28;20062;-74
2021/07/23 12:00:25;;;;;;;10.82;6.28;;;28.50;60.50;;;;;;5016571;28;20041;-74
2021/07/23 12:02:52;;;;;;;9.50;6.10;;;29.30;59.10;;;;;;5013933;28;20048;-74
2021/07/23 12:05:19;;;;;;;8.93;5.63;;;29.80;55.00;;;;;;5012523;28;20087;-75
2021/07/23 12:08:00;;;;;;;9.45;6.28;;;30.20;54.70;;;;;;5024302;28;20041;-75
2021/07/23 12:10:26;;;;;;;10.02;6.22;;;30.10;54.40;;;;;;5026360;28;20377;-75
2021/07/23 12:12:52;;;;;;;11.73;7.00;;;29.50;54.60;;;;;;5026754;28;20034;-74
2021/07/23 12:15:19;;;;;;;10.75;5.80;;;28.90;53.90;;;;;;5018472;28;20117;-73
2021/07/23 12:17:47;;;;;;;8.68;5.68;;;28.30;59.60;;;;;;5019363;28;20032;-75
2021/07/23 12:20:14;;;;;;;10.10;5.80;;;28.00;59.00;;;;;;5029882;28;20029;-76
2021/07/23 12:22:40;;;;;;;7.18;5.88;;;28.70;60.60;;;;;;5022573;28;20038;-75
2021/07/23 12:25:19;;;;;;;9.27;6.00;;;29.50;55.30;;;;;;5026098;28;20030;-76
2021/07/23 12:27:45;;;;;;;10.15;6.78;;;30.50;52.10;;;;;;5025532;28;20021;-79
2021/07/23 12:30:12;;;;;;;11.48;6.55;;;31.20;50.90;;;;;;5026173;28;20047;-76
2021/07/23 12:32:38;;;;;;;8.90;6.47;;;31.60;50.00;;;;;;5024623;28;20060;-74
2021/07/23 12:35:04;;;;;;;9.57;6.30;;;31.90;48.40;;;;;;5014163;28;20053;-74
2021/07/23 12:37:30;;;;;;;10.63;6.32;;;32.10;49.50;;;;;;5016203;28;20041;-73